Time;durP1;ratioP1;P1;durP2;ratioP2;P2;SDS_P1;SDS_P2;PMS_P1;PMS_P2;Temp;Humidity;BMP_temperature;BMP_pressure;BME280_temperature;BME280_humidity;BME280_pressure;Samples;Min_cycle;Max_cycle;Signal;HPM_P1;HPM_P2
2021/12/02 00:01:26;;;;;;;;;;;6.10;1.00;;;;;;5072505;28;19958;-78
2021/12/02 00:03:53;;;;;;;;;;;6.10;1.00;;;;;;5073822;28;20328;-77
2021/12/02 00:06:19;;;;;;;;;;;6.10;1.00;;;;;;5076512;28;19916;-79
2021/12/02 00:08:49;;;;;;;;;;;6.10;1.00;;;;;;5058641;28;19988;-78
2021/12/02 00:11:14;;;;;;;;;;;6.00;1.00;;;;;;5052623;28;19913;-79
2021/12/02 00:21:23;;;;;;;;;;;6.00;1.00;;;;;;5074527;28;20010;-78
2021/12/02 00:23:55;;;;;;;;;;;6.00;1.00;;;;;;5068373;28;20338;-79
2021/12/02 00:26:21;;;;;;;;;;;6.10;1.00;;;;;;5073198;28;19916;-79
2021/12/02 00:28:51;;;;;;;;;;;6.00;1.00;;;;;;5064037;28;19919;-78
2021/12/02 00:31:18;;;;;;;;;;;6.00;1.00;;;;;;5074477;28;19913;-78
2021/12/02 00:33:44;;;;;;;;;;;6.10;1.00;;;;;;5072994;28;19958;-80
2021/12/02 00:36:10;;;;;;;;;;;6.00;1.00;;;;;;5097087;28;19914;-79
2021/12/02 00:38:36;;;;;;;;;;;6.00;1.00;;;;;;5051803;28;19912;-79
2021/12/02 00:41:02;;;;;;;;;;;6.10;1.00;;;;;;5065978;28;19923;-79
2021/12/02 00:43:28;;;;;;;;;;;6.10;1.00;;;;;;5069725;28;19913;-79
2021/12/02 00:45:54;;;;;;;;;;;6.10;1.00;;;;;;5049350;28;20023;-79
2021/12/02 00:48:19;;;;;;;;;;;6.10;1.00;;;;;;5074230;28;19951;-79
2021/12/02 00:50:48;;;;;;;;;;;6.10;1.00;;;;;;5062000;28;19936;-78
2021/12/02 00:53:16;;;;;;;;;;;6.10;1.00;;;;;;5086381;28;19920;-79
2021/12/02 00:55:41;;;;;;;;;;;6.10;1.00;;;;;;5072476;28;19912;-78
2021/12/02 00:58:09;;;;;;;;;;;6.10;1.00;;;;;;5067285;28;19913;-79
2021/12/02 01:00:35;;;;;;;;;;;6.10;1.00;;;;;;5069477;28;20380;-78
2021/12/02 01:03:01;;;;;;;;;;;6.10;1.00;;;;;;5068195;28;19912;-79
2021/12/02 01:05:27;;;;;;;;;;;6.10;1.00;;;;;;5049795;28;19986;-79
2021/12/02 01:07:53;;;;;;;;;;;6.10;1.00;;;;;;5069587;28;20013;-79
2021/12/02 01:10:19;;;;;;;;;;;6.10;1.00;;;;;;5072846;28;19921;-79
2021/12/02 01:12:46;;;;;;;;;;;6.10;1.00;;;;;;5055187;28;20071;-78
2021/12/02 01:15:12;;;;;;;;;;;6.10;1.00;;;;;;5057148;28;19935;-79
2021/12/02 01:17:37;;;;;;;;;;;6.10;1.00;;;;;;5071279;28;19912;-78
2021/12/02 01:20:03;;;;;;;;;;;6.10;1.00;;;;;;5070695;28;19948;-78
2021/12/02 01:22:32;;;;;;;;;;;6.10;1.00;;;;;;5075579;28;20439;-79
2021/12/02 01:24:57;;;;;;;;;;;6.10;1.00;;;;;;5071430;28;19916;-78
2021/12/02 01:27:23;;;;;;;;;;;6.10;1.00;;;;;;5065520;28;19992;-78
2021/12/02 01:29:50;;;;;;;;;;;6.10;1.00;;;;;;5072138;28;19913;-79
2021/12/02 01:32:16;;;;;;;;;;;6.10;1.00;;;;;;5073719;28;19913;-78
2021/12/02 01:34:45;;;;;;;;;;;6.20;1.00;;;;;;5074013;28;19938;-79
2021/12/02 01:37:11;;;;;;;;;;;6.20;1.00;;;;;;5069193;28;19919;-78
2021/12/02 01:39:36;;;;;;;;;;;6.20;1.00;;;;;;5072991;28;20372;-78
2021/12/02 01:42:02;;;;;;;;;;;6.20;1.00;;;;;;5071970;28;20141;-78
2021/12/02 01:44:28;;;;;;;;;;;6.20;1.00;;;;;;5072247;28;19912;-79
2021/12/02 01:46:55;;;;;;;;;;;6.20;1.00;;;;;;5070132;28;19958;-79
2021/12/02 01:49:23;;;;;;;;;;;6.20;1.00;;;;;;5073363;28;19986;-79
2021/12/02 01:51:51;;;;;;;;;;;6.20;1.00;;;;;;5073675;28;19920;-78
2021/12/02 01:54:18;;;;;;;;;;;6.20;1.00;;;;;;5062475;28;19958;-78
2021/12/02 01:56:43;;;;;;;;;;;6.20;1.00;;;;;;5051535;28;19923;-79
2021/12/02 01:59:10;;;;;;;;;;;6.20;1.00;;;;;;5071503;28;19912;-78
2021/12/02 02:01:37;;;;;;;;;;;6.20;1.00;;;;;;5077067;28;20296;-78
2021/12/02 02:04:02;;;;;;;;;;;6.20;1.00;;;;;;5083820;28;19916;-78
2021/12/02 02:06:30;;;;;;;;;;;6.20;1.00;;;;;;5058175;28;19920;-79
2021/12/02 02:08:57;;;;;;;;;;;6.20;1.00;;;;;;5076086;28;20401;-78
2021/12/02 02:11:27;;;;;;;;;;;6.20;1.00;;;;;;5069985;28;19912;-78
2021/12/02 02:13:52;;;;;;;;;;;6.20;1.00;;;;;;5068775;28;19917;-78
2021/12/02 02:16:18;;;;;;;;;;;6.20;1.00;;;;;;5063023;28;19916;-79
2021/12/02 02:18:44;;;;;;;;;;;6.20;1.00;;;;;;5070957;28;19978;-78
2021/12/02 02:21:13;;;;;;;;;;;6.20;1.00;;;;;;5062782;28;19916;-79
2021/12/02 02:23:42;;;;;;;;;;;6.20;1.00;;;;;;5072812;28;19917;-78
2021/12/02 02:26:08;;;;;;;;;;;6.20;1.00;;;;;;5056809;28;19935;-78
2021/12/02 02:28:34;;;;;;;;;;;6.20;1.00;;;;;;5066604;28;19919;-78
2021/12/02 02:31:00;;;;;;;;;;;6.20;1.00;;;;;;5052230;28;19995;-79
2021/12/02 02:33:33;;;;;;;;;;;6.20;1.00;;;;;;5058462;28;19912;-78
2021/12/02 02:35:59;;;;;;;;;;;6.20;1.00;;;;;;5072330;28;19908;-78
2021/12/02 02:38:24;;;;;;;;;;;6.20;1.00;;;;;;5068442;28;19969;-78
2021/12/02 02:40:50;;;;;;;;;;;6.20;1.00;;;;;;5057449;28;19913;-78
2021/12/02 02:43:23;;;;;;;;;;;6.10;1.00;;;;;;5072330;28;19956;-78
2021/12/02 02:45:49;;;;;;;;;;;6.10;1.00;;;;;;5071906;28;19916;-78
2021/12/02 02:48:15;;;;;;;;;;;6.10;1.00;;;;;;5064988;28;19913;-79
2021/12/02 02:50:41;;;;;;;;;;;6.10;1.00;;;;;;5070705;28;19908;-78
2021/12/02 02:53:11;;;;;;;;;;;6.10;1.00;;;;;;5070327;28;19916;-78
2021/12/02 02:55:38;;;;;;;;;;;6.00;1.00;;;;;;5072482;28;19987;-78
2021/12/02 02:58:31;;;;;;;;;;;6.00;1.00;;;;;;5062739;28;19916;-79
2021/12/02 03:01:30;;;;;;;;;;;6.00;1.00;;;;;;5055007;28;19917;-78
2021/12/02 03:04:08;;;;;;;;;;;6.00;1.00;;;;;;5059743;28;19920;-78
2021/12/02 03:06:47;;;;;;;;;;;6.00;1.00;;;;;;5069017;28;19917;-78
2021/12/02 03:12:15;;;;;;;;;;;6.00;1.00;;;;;;5030945;28;19909;-78
2021/12/02 03:17:07;;;;;;;;;;;5.90;1.00;;;;;;5073089;28;19912;-78
2021/12/02 03:19:34;;;;;;;;;;;5.90;1.00;;;;;;5050246;28;20300;-79
2021/12/02 03:22:00;;;;;;;;;;;5.90;1.00;;;;;;5047921;28;20429;-78
2021/12/02 03:24:25;;;;;;;;;;;5.90;1.00;;;;;;5071680;28;19917;-78
2021/12/02 03:26:51;;;;;;;;;;;5.90;1.00;;;;;;5071505;28;20011;-78
2021/12/02 03:29:17;;;;;;;;;;;5.90;1.00;;;;;;5054118;28;19913;-79
2021/12/02 03:31:43;;;;;;;;;;;5.90;1.00;;;;;;5062800;28;20019;-79
2021/12/02 03:34:11;;;;;;;;;;;5.90;1.00;;;;;;5070548;28;19960;-79
2021/12/02 03:36:37;;;;;;;;;;;5.90;1.00;;;;;;5045849;28;19956;-78
2021/12/02 03:39:06;;;;;;;;;;;5.80;1.00;;;;;;5074657;28;19956;-78
2021/12/02 03:41:32;;;;;;;;;;;5.80;1.00;;;;;;5062495;28;20296;-78
2021/12/02 03:43:58;;;;;;;;;;;5.70;1.00;;;;;;5074670;28;19916;-79
2021/12/02 03:46:24;;;;;;;;;;;5.70;1.00;;;;;;5058855;28;19913;-79
2021/12/02 03:48:51;;;;;;;;;;;5.60;1.00;;;;;;5076537;28;19954;-79
2021/12/02 03:51:17;;;;;;;;;;;5.50;1.00;;;;;;5056844;28;19912;-78
2021/12/02 03:53:43;;;;;;;;;;;5.50;1.00;;;;;;5071041;28;19912;-80
2021/12/02 03:56:09;;;;;;;;;;;5.40;1.00;;;;;;5071660;28;19928;-78
2021/12/02 03:58:35;;;;;;;;;;;5.40;1.00;;;;;;5073019;28;19917;-79
2021/12/02 04:01:00;;;;;;;;;;;5.40;1.00;;;;;;5068819;28;19916;-79
2021/12/02 04:03:26;;;;;;;;;;;5.40;1.00;;;;;;5056398;28;19919;-79
2021/12/02 04:05:51;;;;;;;;;;;5.30;1.00;;;;;;5078653;28;19909;-78
2021/12/02 04:08:18;;;;;;;;;;;5.30;1.00;;;;;;5081290;28;20328;-78
2021/12/02 04:10:44;;;;;;;;;;;5.30;1.00;;;;;;5085119;28;19908;-78
2021/12/02 04:15:41;;;;;;;;;;;5.30;1.00;;;;;;5074378;28;19942;-78
2021/12/02 04:18:07;;;;;;;;;;;5.30;1.00;;;;;;5061927;28;20265;-78
2021/12/02 04:20:33;;;;;;;;;;;5.30;1.00;;;;;;5075109;28;19986;-78
2021/12/02 04:22:59;;;;;;;;;;;5.30;1.00;;;;;;5052541;28;20000;-78
2021/12/02 04:25:25;;;;;;;;;;;5.30;1.00;;;;;;5062384;28;19912;-78
2021/12/02 04:27:52;;;;;;;;;;;5.30;1.00;;;;;;5072129;28;19912;-79
2021/12/02 04:30:19;;;;;;;;;;;5.20;1.00;;;;;;5068685;28;19968;-78
2021/12/02 04:32:44;;;;;;;;;;;5.20;1.00;;;;;;5074868;28;19928;-78
2021/12/02 04:35:11;;;;;;;;;;;5.20;1.00;;;;;;5059057;28;20380;-78
2021/12/02 04:37:37;;;;;;;;;;;5.20;1.00;;;;;;5075806;28;20348;-79
2021/12/02 04:40:03;;;;;;;;;;;5.20;1.00;;;;;;5094186;28;20026;-78
2021/12/02 04:42:29;;;;;;;;;;;5.10;1.00;;;;;;5073862;28;19923;-78
2021/12/02 04:44:55;;;;;;;;;;;5.10;1.00;;;;;;5074443;28;19912;-78
2021/12/02 04:47:21;;;;;;;;;;;5.10;1.00;;;;;;5070292;28;20288;-78
2021/12/02 04:49:46;;;;;;;;;;;5.10;1.00;;;;;;5064459;28;19913;-78
2021/12/02 04:52:12;;;;;;;;;;;5.10;1.00;;;;;;5054753;28;20380;-78
2021/12/02 04:54:37;;;;;;;;;;;5.10;1.00;;;;;;5073498;28;19943;-78
2021/12/02 04:57:03;;;;;;;;;;;5.10;1.00;;;;;;5073650;28;19923;-78
2021/12/02 04:59:29;;;;;;;;;;;5.10;1.00;;;;;;5074206;28;19966;-78
2021/12/02 05:01:54;;;;;;;;;;;5.10;1.00;;;;;;5072288;28;20388;-78
2021/12/02 05:04:20;;;;;;;;;;;5.10;1.00;;;;;;5067777;28;19916;-78
2021/12/02 05:06:46;;;;;;;;;;;5.10;1.00;;;;;;5072606;28;20469;-79
2021/12/02 05:09:11;;;;;;;;;;;5.10;1.00;;;;;;5054688;28;20287;-78
2021/12/02 05:11:39;;;;;;;;;;;5.10;1.00;;;;;;5075589;28;19916;-78
2021/12/02 05:14:06;;;;;;;;;;;5.10;1.00;;;;;;5072303;28;19928;-78
2021/12/02 05:16:31;;;;;;;;;;;5.10;1.00;;;;;;5074396;28;19955;-78
2021/12/02 05:18:57;;;;;;;;;;;5.10;1.00;;;;;;5073046;28;19912;-78
2021/12/02 05:21:22;;;;;;;;;;;5.10;1.00;;;;;;5068316;28;19974;-78
2021/12/02 05:23:53;;;;;;;;;;;5.10;1.00;;;;;;5073132;28;19954;-79
2021/12/02 05:26:22;;;;;;;;;;;5.10;1.00;;;;;;5067373;28;19963;-79
2021/12/02 05:28:48;;;;;;;;;;;5.10;1.00;;;;;;5063944;28;19916;-78
2021/12/02 05:31:14;;;;;;;;;;;5.00;1.00;;;;;;5055732;28;19912;-78
2021/12/02 05:33:39;;;;;;;;;;;5.00;1.00;;;;;;5073822;28;19912;-78
2021/12/02 05:36:05;;;;;;;;;;;5.00;1.00;;;;;;5057658;28;19962;-78
2021/12/02 05:38:30;;;;;;;;;;;4.90;1.00;;;;;;5066676;28;19952;-78
2021/12/02 05:40:56;;;;;;;;;;;4.90;1.00;;;;;;5073225;28;19921;-78
2021/12/02 05:43:21;;;;;;;;;;;4.90;1.00;;;;;;5070660;28;20261;-78
2021/12/02 05:45:47;;;;;;;;;;;4.90;1.00;;;;;;5073016;28;19916;-78
2021/12/02 05:48:12;;;;;;;;;;;4.90;1.00;;;;;;5072251;28;19928;-78
2021/12/02 05:50:38;;;;;;;;;;;4.90;1.00;;;;;;5073608;28;19944;-78
2021/12/02 05:53:04;;;;;;;;;;;4.90;1.00;;;;;;5072126;28;19932;-78
2021/12/02 05:55:29;;;;;;;;;;;4.90;1.00;;;;;;5048442;28;20003;-78
2021/12/02 05:57:55;;;;;;;;;;;4.90;1.00;;;;;;5073203;28;19916;-78
2021/12/02 06:00:20;;;;;;;;;;;4.80;1.00;;;;;;5067855;28;19919;-79
2021/12/02 06:02:46;;;;;;;;;;;4.80;1.00;;;;;;5069415;28;19956;-78
2021/12/02 06:05:16;;;;;;;;;;;4.80;1.00;;;;;;5073620;28;19909;-78
2021/12/02 06:07:43;;;;;;;;;;;4.80;1.00;;;;;;5073265;28;19962;-78
2021/12/02 06:10:09;;;;;;;;;;;4.80;1.00;;;;;;5069166;28;19912;-78
2021/12/02 06:12:34;;;;;;;;;;;4.70;1.00;;;;;;5070598;28;19913;-78
2021/12/02 06:14:59;;;;;;;;;;;4.70;1.00;;;;;;5071901;28;19913;-78
2021/12/02 06:17:25;;;;;;;;;;;4.70;1.00;;;;;;5068773;28;19912;-78
2021/12/02 06:19:50;;;;;;;;;;;4.70;1.00;;;;;;5073439;28;19961;-78
2021/12/02 06:22:16;;;;;;;;;;;4.70;1.00;;;;;;5073366;28;19960;-79
2021/12/02 06:27:27;;;;;;;;;;;4.70;1.00;;;;;;5041444;28;19921;-78
2021/12/02 06:29:53;;;;;;;;;;;4.70;1.00;;;;;;5072588;28;19961;-78
2021/12/02 06:32:18;;;;;;;;;;;4.70;1.00;;;;;;5072597;28;19909;-79
2021/12/02 06:34:43;;;;;;;;;;;4.70;1.00;;;;;;5073573;28;19928;-78
2021/12/02 06:37:09;;;;;;;;;;;4.80;1.00;;;;;;5071723;28;19927;-77
2021/12/02 06:39:34;;;;;;;;;;;4.80;1.00;;;;;;5041096;28;19935;-78
2021/12/02 06:42:00;;;;;;;;;;;4.80;1.00;;;;;;5054386;28;19920;-78
2021/12/02 06:44:25;;;;;;;;;;;4.60;1.00;;;;;;5054309;28;20379;-78
2021/12/02 06:46:51;;;;;;;;;;;4.40;99.90;;;;;;5055962;28;19958;-79
2021/12/02 06:49:16;;;;;;;;;;;4.40;99.90;;;;;;5056398;28;20412;-78
2021/12/02 06:51:42;;;;;;;;;;;4.40;99.90;;;;;;5073577;28;19913;-78
2021/12/02 06:54:08;;;;;;;;;;;4.50;99.90;;;;;;5053094;28;20511;-79
2021/12/02 06:56:33;;;;;;;;;;;4.50;99.90;;;;;;5069541;28;19919;-79
2021/12/02 06:58:58;;;;;;;;;;;4.50;99.90;;;;;;5073473;28;19958;-79
2021/12/02 07:01:24;;;;;;;;;;;4.50;99.90;;;;;;5072333;28;19946;-78
2021/12/02 07:03:49;;;;;;;;;;;4.50;1.00;;;;;;5073407;28;19917;-79
2021/12/02 07:06:15;;;;;;;;;;;4.40;1.00;;;;;;5073693;28;19912;-79
2021/12/02 07:08:40;;;;;;;;;;;4.40;1.00;;;;;;5073487;28;19951;-78
2021/12/02 07:11:08;;;;;;;;;;;4.50;1.00;;;;;;5050904;28;19913;-79
2021/12/02 07:13:35;;;;;;;;;;;4.50;1.00;;;;;;5073516;28;20030;-79
2021/12/02 07:16:01;;;;;;;;;;;4.50;1.00;;;;;;5070295;28;19912;-79
2021/12/02 07:18:27;;;;;;;;;;;4.50;1.00;;;;;;5073019;28;19919;-79
2021/12/02 07:20:52;;;;;;;;;;;4.50;1.00;;;;;;5074798;28;19928;-79
2021/12/02 07:23:21;;;;;;;;;;;4.50;1.00;;;;;;5081003;28;20659;-79
2021/12/02 07:25:47;;;;;;;;;;;4.50;1.00;;;;;;5072104;28;19912;-80
2021/12/02 07:28:13;;;;;;;;;;;4.50;1.00;;;;;;5079099;28;19920;-80
2021/12/02 07:30:39;;;;;;;;;;;4.40;1.00;;;;;;5073168;28;19920;-81
2021/12/02 07:33:07;;;;;;;;;;;4.40;1.00;;;;;;5052589;28;19912;-81
2021/12/02 07:35:33;;;;;;;;;;;4.40;1.00;;;;;;5054688;28;19923;-79
2021/12/02 07:37:59;;;;;;;;;;;4.40;1.00;;;;;;5071505;28;19913;-80
2021/12/02 07:40:26;;;;;;;;;;;4.40;1.00;;;;;;5073131;28;19992;-78
2021/12/02 07:42:52;;;;;;;;;;;4.40;1.00;;;;;;5072204;28;20466;-79
2021/12/02 07:45:18;;;;;;;;;;;4.40;1.00;;;;;;5059112;28;19924;-79
2021/12/02 07:47:44;;;;;;;;;;;4.50;1.00;;;;;;5054983;28;19913;-79
2021/12/02 07:50:11;;;;;;;;;;;4.50;1.00;;;;;;5054810;28;20008;-79
2021/12/02 07:52:40;;;;;;;;;;;4.50;1.00;;;;;;5053540;28;19913;-79
2021/12/02 07:55:07;;;;;;;;;;;4.40;1.00;;;;;;5073045;28;19958;-79
2021/12/02 07:57:33;;;;;;;;;;;4.40;1.00;;;;;;5061584;28;19928;-79
2021/12/02 07:59:59;;;;;;;;;;;4.40;1.00;;;;;;5073761;28;19908;-79
2021/12/02 08:02:25;;;;;;;;;;;4.40;1.00;;;;;;5049307;28;20010;-79
2021/12/02 08:04:51;;;;;;;;;;;4.40;1.00;;;;;;5077939;28;19935;-79
2021/12/02 08:07:16;;;;;;;;;;;4.30;1.00;;;;;;5072413;28;20002;-79
2021/12/02 08:09:42;;;;;;;;;;;4.30;1.00;;;;;;5089828;28;19970;-78
2021/12/02 08:12:07;;;;;;;;;;;4.40;1.00;;;;;;5054998;28;20265;-79
2021/12/02 08:14:33;;;;;;;;;;;4.40;1.00;;;;;;5072729;28;19919;-79
2021/12/02 08:16:58;;;;;;;;;;;4.40;1.00;;;;;;5051205;28;20058;-79
2021/12/02 08:19:24;;;;;;;;;;;4.40;1.00;;;;;;5053803;28;19962;-79
2021/12/02 08:21:50;;;;;;;;;;;4.30;1.00;;;;;;5043359;28;19939;-78
2021/12/02 08:24:16;;;;;;;;;;;4.40;1.00;;;;;;5061679;28;19913;-78
2021/12/02 08:26:41;;;;;;;;;;;4.40;1.00;;;;;;5061484;28;19919;-78
2021/12/02 08:29:07;;;;;;;;;;;4.30;1.00;;;;;;5060767;28;19971;-78
2021/12/02 08:31:33;;;;;;;;;;;4.30;1.00;;;;;;5052947;28;19963;-78
2021/12/02 08:33:59;;;;;;;;;;;4.30;1.00;;;;;;5044999;28;19917;-78
2021/12/02 08:36:29;;;;;;;;;;;4.40;1.00;;;;;;5073595;28;19999;-77
2021/12/02 08:38:55;;;;;;;;;;;4.40;1.00;;;;;;5046426;28;19985;-79
2021/12/02 08:41:21;;;;;;;;;;;4.40;1.00;;;;;;5046234;28;19928;-79
2021/12/02 08:43:47;;;;;;;;;;;4.40;1.00;;;;;;5053702;28;19913;-78
2021/12/02 08:46:13;;;;;;;;;;;4.40;1.00;;;;;;5075996;28;19909;-78
2021/12/02 08:48:38;;;;;;;;;;;4.40;1.00;;;;;;5074734;28;19908;-78
2021/12/02 08:51:04;;;;;;;;;;;4.40;1.00;;;;;;5061669;28;20015;-79
2021/12/02 08:53:29;;;;;;;;;;;4.50;1.00;;;;;;5074924;28;20356;-80
2021/12/02 08:55:55;;;;;;;;;;;4.60;1.00;;;;;;5049633;28;19920;-79
2021/12/02 08:58:20;;;;;;;;;;;4.70;1.00;;;;;;5046700;28;19960;-79
2021/12/02 09:00:46;;;;;;;;;;;4.70;1.00;;;;;;5053657;28;20003;-79
2021/12/02 09:03:13;;;;;;;;;;;4.80;1.00;;;;;;5051433;28;19913;-79
2021/12/02 09:05:39;;;;;;;;;;;4.70;1.00;;;;;;5073587;28;20280;-80
2021/12/02 09:08:05;;;;;;;;;;;4.80;1.00;;;;;;5069998;28;19913;-79
2021/12/02 09:10:31;;;;;;;;;;;4.90;99.90;;;;;;5062696;28;19918;-79
2021/12/02 09:12:57;;;;;;;;;;;5.00;99.90;;;;;;5063353;28;19912;-80
2021/12/02 09:15:23;;;;;;;;;;;5.10;99.90;;;;;;5078668;28;19924;-80
2021/12/02 09:17:49;;;;;;;;;;;5.20;99.90;;;;;;5078794;28;19908;-79
2021/12/02 09:20:15;;;;;;;;;;;5.30;99.90;;;;;;5078756;28;19916;-79
2021/12/02 09:22:41;;;;;;;;;;;5.50;99.90;;;;;;5051559;28;19966;-79
2021/12/02 09:25:08;;;;;;;;;;;5.70;1.00;;;;;;5092173;28;19912;-79
2021/12/02 09:27:33;;;;;;;;;;;5.70;1.00;;;;;;5059731;28;19909;-79
2021/12/02 09:29:59;;;;;;;;;;;5.70;1.00;;;;;;5075771;28;20365;-80
2021/12/02 09:32:25;;;;;;;;;;;5.60;99.90;;;;;;5077498;28;19909;-79
2021/12/02 09:34:50;;;;;;;;;;;5.80;99.90;;;;;;5073469;28;19913;-79
2021/12/02 09:37:16;;;;;;;;;;;6.00;99.90;;;;;;5071356;28;19916;-79
2021/12/02 09:39:42;;;;;;;;;;;6.10;77.70;;;;;;5053096;28;19912;-79
2021/12/02 09:42:10;;;;;;;;;;;6.10;1.00;;;;;;5071832;28;19959;-79
2021/12/02 09:44:39;;;;;;;;;;;6.10;1.00;;;;;;5052120;28;19919;-79
2021/12/02 09:47:05;;;;;;;;;;;6.00;1.00;;;;;;5076284;28;19913;-79
2021/12/02 09:49:31;;;;;;;;;;;6.00;1.00;;;;;;5076732;28;19966;-79
2021/12/02 09:52:04;;;;;;;;;;;6.00;1.00;;;;;;5075977;28;19984;-79
2021/12/02 09:56:59;;;;;;;;;;;5.90;1.00;;;;;;5083344;28;20010;-79
2021/12/02 09:59:34;;;;;;;;;;;5.90;1.00;;;;;;5050260;28;19927;-79
2021/12/02 10:02:03;;;;;;;;;;;6.00;1.00;;;;;;5057948;28;19999;-79
2021/12/02 10:04:29;;;;;;;;;;;6.00;1.00;;;;;;5074912;28;19908;-79
2021/12/02 10:07:16;;;;;;;;;;;6.00;1.00;;;;;;5056882;28;20007;-79
2021/12/02 10:09:53;;;;;;;;;;;6.00;1.00;;;;;;5057808;28;20391;-79
2021/12/02 10:12:22;;;;;;;;;;;6.00;1.00;;;;;;5069571;28;20376;-80
2021/12/02 10:14:53;;;;;;;;;;;6.00;1.00;;;;;;5055888;28;19923;-79
2021/12/02 10:20:10;;;;;;;;;;;5.90;99.90;;;;;;5074565;28;19908;-79
2021/12/02 10:22:36;;;;;;;;;;;5.90;1.00;;;;;;5055088;28;20583;-79
2021/12/02 10:25:01;;;;;;;;;;;5.90;1.00;;;;;;5056664;28;19908;-79
2021/12/02 10:27:27;;;;;;;;;;;6.00;1.00;;;;;;5074581;28;19920;-79
2021/12/02 10:29:52;;;;;;;;;;;6.00;1.00;;;;;;5075119;28;19963;-79
2021/12/02 10:32:29;;;;;;;;;;;6.10;99.90;;;;;;5074173;28;19913;-79
2021/12/02 10:34:56;;;;;;;;;;;6.40;99.90;;;;;;5050477;28;20284;-79
2021/12/02 10:37:23;;;;;;;;;;;6.50;99.90;;;;;;5060510;28;19919;-79
2021/12/02 10:40:03;;;;;;;;;;;6.80;23.30;;;;;;5074682;28;19908;-79
2021/12/02 10:42:30;;;;;;;;;;;7.00;1.00;;;;;;5072968;28;20372;-79
2021/12/02 10:44:58;;;;;;;;;;;6.80;18.10;;;;;;5074469;28;19909;-79
2021/12/02 10:47:24;;;;;;;;;;;6.90;1.00;;;;;;5055699;28;19912;-79
2021/12/02 10:49:51;;;;;;;;;;;6.80;1.00;;;;;;5074256;28;19908;-79
2021/12/02 10:52:24;;;;;;;;;;;6.80;1.00;;;;;;5069790;28;19944;-79
2021/12/02 10:55:02;;;;;;;;;;;6.70;1.00;;;;;;5073441;28;20003;-80
2021/12/02 10:57:28;;;;;;;;;;;6.40;99.90;;;;;;5054740;28;20003;-79
2021/12/02 10:59:57;;;;;;;;;;;6.40;1.00;;;;;;5072753;28;19999;-79
2021/12/02 11:02:30;;;;;;;;;;;6.50;1.00;;;;;;5073166;28;19917;-79
2021/12/02 11:04:59;;;;;;;;;;;6.40;1.00;;;;;;5073215;28;19909;-78
2021/12/02 11:07:26;;;;;;;;;;;6.20;1.00;;;;;;5069083;28;20399;-78
2021/12/02 11:09:53;;;;;;;;;;;6.10;1.00;;;;;;5069903;28;19912;-78
2021/12/02 11:12:21;;;;;;;;;;;6.10;1.00;;;;;;5066645;28;19912;-79
2021/12/02 11:15:06;;;;;;;;;;;6.00;1.00;;;;;;5072559;28;19991;-78
2021/12/02 11:17:33;;;;;;;;;;;6.00;1.00;;;;;;5072742;28;19916;-78
2021/12/02 11:20:04;;;;;;;;;;;5.90;1.00;;;;;;5074062;28;19916;-79
2021/12/02 11:22:30;;;;;;;;;;;6.00;99.90;;;;;;5053393;28;19960;-79
2021/12/02 11:24:56;;;;;;;;;;;6.10;99.90;;;;;;5055251;28;19915;-77
2021/12/02 11:27:24;;;;;;;;;;;6.00;37.50;;;;;;5062235;28;19913;-78
2021/12/02 11:29:51;;;;;;;;;;;6.00;92.90;;;;;;5073153;28;19912;-78
2021/12/02 11:32:34;;;;;;;;;;;6.00;99.90;;;;;;5054173;28;20404;-78
2021/12/02 11:35:01;;;;;;;;;;;6.00;99.90;;;;;;5055917;28;19915;-78
2021/12/02 11:37:27;;;;;;;;;;;6.10;1.00;;;;;;5073859;28;20327;-78
2021/12/02 11:39:54;;;;;;;;;;;6.10;1.00;;;;;;5053647;28;19913;-78
2021/12/02 11:42:20;;;;;;;;;;;6.10;99.90;;;;;;5068878;28;20015;-78
2021/12/02 11:44:46;;;;;;;;;;;6.10;99.20;;;;;;5065355;28;19955;-78
2021/12/02 11:47:12;;;;;;;;;;;6.00;31.50;;;;;;5068435;28;19915;-78
2021/12/02 11:49:38;;;;;;;;;;;5.90;1.00;;;;;;5070269;28;19916;-78
2021/12/02 11:52:03;;;;;;;;;;;5.80;1.00;;;;;;5073628;28;19915;-78
2021/12/02 11:54:29;;;;;;;;;;;5.70;99.90;;;;;;5073454;28;19913;-78
2021/12/02 11:56:55;;;;;;;;;;;5.70;99.90;;;;;;5057242;28;19912;-78
2021/12/02 11:59:21;;;;;;;;;;;5.80;99.90;;;;;;5059530;28;20270;-78
2021/12/02 12:01:46;;;;;;;;;;;5.80;99.90;;;;;;5077551;28;19970;-78
2021/12/02 12:04:13;;;;;;;;;;;5.80;99.90;;;;;;5073497;28;19948;-78
2021/12/02 12:06:41;;;;;;;;;;;5.80;99.90;;;;;;5051280;28;19913;-78
2021/12/02 12:09:17;;;;;;;;;;;5.80;99.90;;;;;;5076425;28;19918;-78
2021/12/02 12:11:49;;;;;;;;;;;5.80;99.90;;;;;;5058875;28;19912;-78
2021/12/02 12:14:19;;;;;;;;;;;5.80;99.90;;;;;;5068554;28;20405;-78
2021/12/02 12:16:51;;;;;;;;;;;5.80;99.90;;;;;;5076220;28;19923;-78
2021/12/02 12:19:16;;;;;;;;;;;5.80;99.90;;;;;;5077565;28;20365;-78
2021/12/02 12:21:44;;;;;;;;;;;5.80;99.90;;;;;;5051322;28;19917;-78
2021/12/02 12:24:14;;;;;;;;;;;5.80;99.90;;;;;;5076951;28;19922;-78
2021/12/02 12:26:40;;;;;;;;;;;5.80;99.90;;;;;;5054174;28;20019;-78
2021/12/02 12:29:06;;;;;;;;;;;5.70;99.90;;;;;;5075030;28;19959;-78
2021/12/02 12:31:34;;;;;;;;;;;5.60;99.90;;;;;;5062025;28;19924;-78
2021/12/02 12:34:01;;;;;;;;;;;5.60;99.90;;;;;;5073651;28;19944;-78
2021/12/02 12:36:36;;;;;;;;;;;5.60;99.90;;;;;;5072803;28;19927;-78
2021/12/02 12:39:18;;;;;;;;;;;5.60;1.00;;;;;;5060216;28;19914;-78
2021/12/02 12:41:44;;;;;;;;;;;5.70;1.00;;;;;;5070645;28;19920;-78
2021/12/02 12:44:09;;;;;;;;;;;5.80;99.90;;;;;;5073274;28;19912;-78
2021/12/02 12:46:35;;;;;;;;;;;6.40;99.90;;;;;;5075285;28;19908;-78
2021/12/02 12:49:15;;;;;;;;;;;6.90;99.90;;;;;;5075783;28;19909;-78
2021/12/02 12:51:48;;;;;;;;;;;7.60;1.00;;;;;;5058305;28;19909;-78
2021/12/02 12:54:18;;;;;;;;;;;7.90;99.90;;;;;;5074865;28;20006;-77
2021/12/02 12:56:46;;;;;;;;;;;7.70;1.00;;;;;;5044163;28;19920;-78
2021/12/02 12:59:13;;;;;;;;;;;7.50;99.90;;;;;;5069836;28;19920;-78
2021/12/02 13:01:40;;;;;;;;;;;7.30;99.90;;;;;;5049655;28;20003;-78
2021/12/02 13:04:07;;;;;;;;;;;7.10;99.90;;;;;;5061353;28;19928;-78
2021/12/02 13:06:47;;;;;;;;;;;7.00;99.90;;;;;;5060917;28;19918;-78
2021/12/02 13:09:30;;;;;;;;;;;6.80;99.90;;;;;;5066774;28;19921;-78
2021/12/02 13:11:58;;;;;;;;;;;6.60;1.00;;;;;;5068072;28;19912;-79
2021/12/02 13:14:24;;;;;;;;;;;6.50;1.00;;;;;;5052861;28;19913;-77
2021/12/02 13:16:50;;;;;;;;;;;6.40;1.00;;;;;;5062431;28;19913;-77
2021/12/02 13:19:16;;;;;;;;;;;6.30;1.00;;;;;;5062060;28;20373;-77
2021/12/02 13:21:42;;;;;;;;;;;6.10;1.00;;;;;;5040953;28;19931;-77
2021/12/02 13:24:12;;;;;;;;;;;6.10;34.70;;;;;;5060452;28;19947;-79
2021/12/02 13:26:37;;;;;;;;;;;6.10;40.80;;;;;;5060313;28;20033;-77
2021/12/02 13:29:05;;;;;;;;;;;6.10;44.70;;;;;;5049954;28;19956;-78
2021/12/02 13:31:31;;;;;;;;;;;6.10;1.00;;;;;;5059701;28;19913;-77
2021/12/02 13:34:05;;;;;;;;;;;6.00;48.10;;;;;;5077991;28;19923;-77
2021/12/02 13:36:31;;;;;;;;;;;6.00;99.90;;;;;;5062959;28;19919;-77
2021/12/02 13:38:58;;;;;;;;;;;6.00;99.90;;;;;;5062617;28;20003;-78
2021/12/02 13:41:24;;;;;;;;;;;6.00;99.90;;;;;;5050908;28;20352;-78
2021/12/02 13:43:52;;;;;;;;;;;6.00;99.90;;;;;;5057502;28;19963;-78
2021/12/02 13:46:26;;;;;;;;;;;5.90;99.90;;;;;;5066573;28;20361;-78
2021/12/02 13:48:55;;;;;;;;;;;5.80;1.00;;;;;;5069624;28;19912;-78
2021/12/02 13:54:26;;;;;;;;;;;5.70;1.00;;;;;;5055190;28;19919;-79
2021/12/02 13:56:52;;;;;;;;;;;5.60;99.90;;;;;;5068239;28;19946;-79
2021/12/02 13:59:22;;;;;;;;;;;5.60;10.80;;;;;;5061817;28;19966;-78
2021/12/02 14:01:49;;;;;;;;;;;5.60;99.90;;;;;;5066393;28;19924;-77
2021/12/02 14:04:14;;;;;;;;;;;5.60;99.90;;;;;;5070665;28;19998;-78
2021/12/02 14:06:40;;;;;;;;;;;5.70;1.00;;;;;;5071902;28;19913;-78
2021/12/02 14:09:16;;;;;;;;;;;5.70;1.00;;;;;;5085056;28;19916;-78
2021/12/02 14:11:42;;;;;;;;;;;5.60;1.00;;;;;;5068819;28;20057;-77
2021/12/02 14:14:14;;;;;;;;;;;5.60;99.90;;;;;;5058000;28;20396;-79
2021/12/02 14:16:40;;;;;;;;;;;5.60;1.00;;;;;;5051478;28;19913;-79
2021/12/02 14:19:09;;;;;;;;;;;5.60;1.00;;;;;;5075231;28;19924;-81
2021/12/02 14:21:35;;;;;;;;;;;5.60;99.90;;;;;;5056948;28;20011;-78
2021/12/02 14:24:00;;;;;;;;;;;5.50;99.90;;;;;;5077324;28;19959;-78
2021/12/02 14:26:29;;;;;;;;;;;5.50;99.90;;;;;;5060598;28;20004;-79
2021/12/02 14:28:55;;;;;;;;;;;5.50;99.90;;;;;;5046700;28;20258;-78
2021/12/02 14:31:26;;;;;;;;;;;5.50;1.00;;;;;;5059654;28;20814;-78
2021/12/02 14:33:53;;;;;;;;;;;5.40;99.90;;;;;;5065508;28;19923;-80
2021/12/02 14:36:20;;;;;;;;;;;5.30;99.90;;;;;;5071275;28;20015;-78
2021/12/02 14:38:58;;;;;;;;;;;5.30;1.00;;;;;;5059106;28;19999;-79
2021/12/02 14:41:32;;;;;;;;;;;5.30;1.00;;;;;;5057045;28;19962;-79
2021/12/02 14:44:01;;;;;;;;;;;5.20;99.90;;;;;;5058880;28;19954;-78
2021/12/02 14:46:38;;;;;;;;;;;5.10;1.00;;;;;;5064122;28;19930;-79
2021/12/02 14:49:14;;;;;;;;;;;5.20;1.00;;;;;;5054930;28;20394;-79
2021/12/02 14:51:46;;;;;;;;;;;5.20;1.00;;;;;;5068802;28;19944;-78
2021/12/02 14:54:13;;;;;;;;;;;5.40;99.90;;;;;;5078691;28;19962;-79
2021/12/02 14:56:42;;;;;;;;;;;5.50;99.90;;;;;;5076133;28;19916;-78
2021/12/02 14:59:21;;;;;;;;;;;5.40;1.00;;;;;;5053900;28;19913;-78
2021/12/02 15:02:08;;;;;;;;;;;5.40;1.00;;;;;;5059549;28;19921;-78
2021/12/02 15:04:34;;;;;;;;;;;5.20;1.00;;;;;;5062870;28;19912;-78
2021/12/02 15:07:08;;;;;;;;;;;5.10;99.90;;;;;;5071739;28;19920;-78
2021/12/02 15:09:35;;;;;;;;;;;5.00;99.90;;;;;;5082026;28;19934;-79